createdAt,value
2019-03-25T00:01:24.685Z,46.04
2019-03-25T02:52:22.516Z,51.31
2019-03-25T02:54:52.651Z,52.47
2019-03-25T02:57:22.834Z,52.26
2019-03-25T02:59:53.129Z,52.71
2019-03-25T03:02:23.146Z,52.99
2019-03-25T03:04:54.675Z,52.93
2019-03-25T03:07:24.804Z,53.57
2019-03-25T03:09:55.046Z,54.13
2019-03-25T03:12:25.194Z,54.13
2019-03-25T03:14:55.235Z,54.35
2019-03-25T03:17:25.663Z,54.27
2019-03-25T03:19:55.918Z,53.30
2019-03-25T03:22:26.156Z,53.62
2019-03-25T03:24:56.354Z,52.84
2019-03-25T03:27:29.708Z,53.31
2019-03-25T03:29:58.650Z,53.27
2019-03-25T03:32:28.757Z,53.49
2019-03-25T03:34:58.951Z,52.25
2019-03-25T03:37:30.093Z,52.25
2019-03-25T03:40:00.681Z,52.60
2019-03-25T03:42:30.773Z,53.79
2019-03-25T03:45:01.034Z,53.79
2019-03-25T03:47:31.280Z,53.29
2019-03-25T03:50:01.593Z,53.76
2019-03-25T03:52:31.805Z,53.60
2019-03-25T03:55:02.257Z,52.72
2019-03-25T03:57:32.589Z,52.40
2019-03-25T04:00:04.001Z,53.06
2019-03-25T04:02:34.528Z,52.35
2019-03-25T04:05:04.945Z,52.71
2019-03-25T04:07:35.360Z,52.71
2019-03-25T04:10:06.119Z,52.26
2019-03-25T04:12:37.374Z,52.16
2019-03-25T04:15:07.765Z,51.88
2019-03-25T04:17:38.316Z,52.08
2019-03-25T04:20:09.791Z,52.92
2019-03-25T04:22:39.994Z,53.33
2019-03-25T04:25:10.762Z,53.12
2019-03-25T04:27:43.364Z,53.24
2019-03-25T04:30:14.125Z,53.18
2019-03-25T04:32:46.225Z,53.32
2019-03-25T04:35:16.843Z,53.07
2019-03-25T04:37:47.097Z,52.85
2019-03-25T04:40:17.659Z,52.40
2019-03-25T04:42:48.635Z,52.43
2019-03-25T04:45:21.060Z,53.11
2019-03-25T04:47:53.937Z,52.93
2019-03-25T04:50:24.572Z,52.47
2019-03-25T04:52:56.049Z,52.37
2019-03-25T04:55:29.537Z,53.05
2019-03-25T04:58:00.117Z,53.05
2019-03-25T05:00:37.951Z,52.92
2019-03-25T05:03:08.516Z,51.65
2019-03-25T05:05:39.423Z,51.65
2019-03-25T05:08:09.756Z,51.14
2019-03-25T05:10:40.357Z,51.90
2019-03-25T05:13:13.247Z,50.63
2019-03-25T05:15:44.948Z,49.73
2019-03-25T05:18:19.156Z,49.73
2019-03-25T05:20:49.315Z,49.63
2019-03-25T05:23:21.124Z,49.89
2019-03-25T05:25:51.430Z,49.00
2019-03-25T05:28:21.734Z,48.75
2019-03-25T05:30:51.938Z,48.72
2019-03-25T05:33:22.224Z,48.40
2019-03-25T05:35:52.248Z,48.39
2019-03-25T05:38:22.438Z,47.54
2019-03-25T05:40:53.747Z,47.54
2019-03-25T05:43:25.544Z,47.78
2019-03-25T05:45:55.842Z,47.71
2019-03-25T05:48:27.311Z,47.49
2019-03-25T05:50:57.952Z,46.92
2019-03-25T05:53:28.362Z,46.52
2019-03-25T05:55:58.755Z,45.44
2019-03-25T05:58:32.999Z,45.14
2019-03-25T06:01:04.224Z,43.73
2019-03-25T06:03:36.130Z,43.12
2019-03-25T06:06:06.427Z,42.18
2019-03-25T06:08:36.696Z,40.77
2019-03-25T06:11:08.349Z,40.43
2019-03-25T06:13:38.752Z,39.61
2019-03-25T06:16:11.094Z,38.48
2019-03-25T06:18:41.467Z,37.32
2019-03-25T06:21:12.642Z,36.70
2019-03-25T06:23:47.330Z,35.48
2019-03-25T06:26:17.507Z,35.54
2019-03-25T06:28:47.850Z,35.21
2019-03-25T06:31:19.539Z,33.97
2019-03-25T06:33:49.649Z,32.90
2019-03-25T06:36:21.112Z,30.84
2019-03-25T06:38:51.434Z,31.28
2019-03-25T06:41:23.285Z,29.12
2019-03-25T06:43:53.757Z,26.76
2019-03-25T06:46:24.254Z,24.60
2019-03-25T06:48:57.908Z,22.55
2019-03-25T06:51:28.812Z,20.90
2019-03-25T06:54:01.614Z,18.57
2019-03-25T06:56:32.530Z,17.15
2019-03-25T06:59:02.786Z,16.25
2019-03-25T07:01:34.546Z,15.70
2019-03-25T07:04:08.267Z,14.88
2019-03-25T07:06:39.786Z,13.06
2019-03-25T07:09:11.706Z,13.37
2019-03-25T07:11:47.770Z,13.08
2019-03-25T07:14:18.460Z,13.02
2019-03-25T07:16:48.619Z,12.76
2019-03-25T07:19:23.079Z,12.77
2019-03-25T07:21:56.738Z,12.25
2019-03-25T07:24:28.359Z,11.41
2019-03-25T07:27:00.313Z,11.16
2019-03-25T07:29:32.446Z,10.87
2019-03-25T07:32:05.608Z,10.56
2019-03-25T07:34:41.197Z,10.21
2019-03-25T07:37:12.412Z,10.20
2019-03-25T07:39:43.021Z,9.56
2019-03-25T07:42:13.439Z,9.76
2019-03-25T07:44:44.300Z,9.21
2019-03-25T07:47:14.556Z,9.91
2019-03-25T07:49:47.343Z,9.15
2019-03-25T07:52:19.786Z,9.22
2019-03-25T07:54:55.581Z,9.54
2019-03-25T07:57:27.024Z,9.64
2019-03-25T07:59:59.272Z,9.49
2019-03-25T08:02:32.356Z,9.76
2019-03-25T08:05:04.764Z,9.75
2019-03-25T08:07:36.609Z,9.69
2019-03-25T08:10:07.570Z,9.59
2019-03-25T08:12:40.122Z,8.76
2019-03-25T08:15:11.178Z,8.41
2019-03-25T08:17:42.153Z,8.81
2019-03-25T08:20:14.905Z,8.43
2019-03-25T08:22:45.523Z,7.92
2019-03-25T08:25:17.152Z,7.99
2019-03-25T08:27:59.882Z,7.12
2019-03-25T08:30:24.149Z,7.31
2019-03-25T08:32:56.573Z,7.06
2019-03-25T08:35:28.026Z,7.78
2019-03-25T08:37:58.856Z,7.78
2019-03-25T08:40:29.220Z,7.59
2019-03-25T08:43:01.186Z,8.23
2019-03-25T08:45:31.632Z,8.05
2019-03-25T08:48:07.501Z,7.75
2019-03-25T08:50:41.767Z,7.98
2019-03-25T08:53:12.146Z,7.12
2019-03-25T08:55:43.670Z,7.94
2019-03-25T08:58:15.176Z,8.18
2019-03-25T09:00:45.587Z,7.89
2019-03-25T09:03:16.944Z,7.78
2019-03-25T09:05:47.293Z,7.35
2019-03-25T09:08:17.573Z,6.68
2019-03-25T09:10:47.897Z,6.68
2019-03-25T09:13:19.441Z,6.12
2019-03-25T09:15:49.535Z,6.26
2019-03-25T09:18:19.721Z,6.75
2019-03-25T09:20:49.837Z,6.12
2019-03-25T09:23:20.383Z,6.87
2019-03-25T09:25:53.687Z,6.36
2019-03-25T09:28:26.163Z,5.78
2019-03-25T09:31:15.752Z,6.28
2019-03-25T09:33:48.222Z,5.36
2019-03-25T09:36:20.405Z,6.24
2019-03-25T09:38:51.103Z,6.24
2019-03-25T09:41:21.777Z,5.64
2019-03-25T09:43:52.105Z,7.08
2019-03-25T09:46:22.396Z,6.31
2019-03-25T09:48:52.680Z,5.69
2019-03-25T09:51:24.085Z,5.84
2019-03-25T09:53:54.489Z,6.40
2019-03-25T09:56:24.867Z,6.46
2019-03-25T09:58:57.857Z,5.91
2019-03-25T10:01:29.399Z,5.67
2019-03-25T10:04:01.005Z,6.10
2019-03-25T10:06:31.320Z,5.74
2019-03-25T10:09:03.871Z,5.42
2019-03-25T10:11:34.117Z,5.36
2019-03-25T10:14:04.630Z,5.86
2019-03-25T10:16:36.781Z,6.01
2019-03-25T10:19:07.088Z,5.99
2019-03-25T10:21:37.329Z,5.43
2019-03-25T10:24:07.667Z,5.72
2019-03-25T10:26:37.913Z,4.94
2019-03-25T10:29:12.284Z,4.94
2019-03-25T10:31:42.594Z,5.13
2019-03-25T10:34:12.906Z,4.46
2019-03-25T10:36:43.156Z,4.87
2019-03-25T10:39:13.586Z,4.86
2019-03-25T10:41:43.842Z,4.54
2019-03-25T10:44:13.865Z,4.78
2019-03-25T10:46:45.525Z,5.29
2019-03-25T10:49:16.413Z,5.25
2019-03-25T10:51:48.955Z,4.97
2019-03-25T10:54:19.303Z,4.26
2019-03-25T10:56:49.686Z,4.89
2019-03-25T10:59:20.007Z,5.17
2019-03-25T11:01:50.204Z,5.05
2019-03-25T11:04:20.381Z,4.38
2019-03-25T11:06:50.597Z,4.86
2019-03-25T11:09:21.853Z,4.56
2019-03-25T11:11:52.129Z,4.46
2019-03-25T11:14:22.270Z,4.22
2019-03-25T11:16:52.543Z,4.43
2019-03-25T11:19:22.820Z,4.77
2019-03-25T11:21:55.160Z,4.64
2019-03-25T11:24:25.437Z,6.30
2019-03-25T11:26:56.563Z,5.23
2019-03-25T11:29:30.863Z,5.48
2019-03-25T11:32:01.068Z,6.30
2019-03-25T11:34:31.400Z,6.99
2019-03-25T11:37:01.668Z,7.34
2019-03-25T11:39:33.254Z,9.60
2019-03-25T11:42:03.540Z,9.48
2019-03-25T11:44:33.629Z,10.65
2019-03-25T11:47:05.250Z,12.85
2019-03-25T11:49:37.562Z,13.57
2019-03-25T11:52:09.495Z,13.24
2019-03-25T11:54:42.898Z,13.52
2019-03-25T11:57:15.842Z,13.37
2019-03-25T11:59:46.090Z,14.92
2019-03-25T12:02:17.821Z,16.50
2019-03-25T12:04:48.610Z,17.30
2019-03-25T12:07:20.973Z,16.61
2019-03-25T12:09:53.535Z,17.62
2019-03-25T12:12:24.939Z,18.63
2019-03-25T12:14:55.122Z,17.29
2019-03-25T12:17:27.466Z,17.07
2019-03-25T12:19:57.716Z,18.50
2019-03-25T12:22:27.903Z,18.78
2019-03-25T12:24:58.088Z,17.39
2019-03-25T12:27:28.459Z,18.23
2019-03-25T12:29:58.748Z,17.74
2019-03-25T12:32:29.064Z,18.67
2019-03-25T12:34:59.715Z,19.24
2019-03-25T12:37:30.352Z,19.77
2019-03-25T12:40:00.646Z,18.01
2019-03-25T12:42:30.991Z,18.66
2019-03-25T12:45:01.278Z,19.60
2019-03-25T12:47:31.481Z,18.50
2019-03-25T12:50:03.121Z,19.69
2019-03-25T12:52:33.344Z,18.47
2019-03-25T12:55:03.560Z,19.27
2019-03-25T12:57:34.833Z,18.33
2019-03-25T13:00:05.901Z,19.54
2019-03-25T13:02:37.382Z,19.11
2019-03-25T13:05:10.407Z,19.56
2019-03-25T13:07:42.516Z,19.60
2019-03-25T13:10:12.907Z,19.11
2019-03-25T13:12:43.421Z,18.79
2019-03-25T13:15:14.969Z,18.40
2019-03-25T13:17:45.245Z,18.94
2019-03-25T13:20:22.700Z,18.87
2019-03-25T13:22:50.360Z,19.38
2019-03-25T13:25:22.881Z,20.28
2019-03-25T13:27:53.108Z,20.63
2019-03-25T13:30:23.653Z,20.84
2019-03-25T13:32:54.092Z,20.40
2019-03-25T13:35:24.409Z,18.93
2019-03-25T13:37:54.724Z,19.91
2019-03-25T13:40:24.878Z,19.24
2019-03-25T13:42:55.288Z,20.06
2019-03-25T13:45:27.093Z,19.67
2019-03-25T13:47:57.352Z,19.87
2019-03-25T13:50:27.596Z,19.71
2019-03-25T13:52:57.846Z,20.36
2019-03-25T13:55:29.452Z,20.26
2019-03-25T13:57:59.725Z,20.36
2019-03-25T14:00:42.611Z,19.03
2019-03-25T14:03:12.918Z,19.18
2019-03-25T14:05:43.069Z,19.68
2019-03-25T14:08:13.314Z,19.30
2019-03-25T14:10:43.556Z,19.72
2019-03-25T14:13:13.642Z,20.39
2019-03-25T14:15:43.975Z,19.63
2019-03-25T14:18:15.356Z,20.26
2019-03-25T14:20:45.731Z,20.28
2019-03-25T14:23:18.442Z,19.87
2019-03-25T14:25:48.945Z,20.32
2019-03-25T14:28:19.145Z,21.07
2019-03-25T14:30:49.476Z,20.46
2019-03-25T14:33:21.454Z,20.42
2019-03-25T14:35:55.085Z,21.09
2019-03-25T14:38:25.604Z,20.04
2019-03-25T14:40:56.501Z,20.73
2019-03-25T14:43:26.971Z,21.16
2019-03-25T14:45:57.090Z,20.32
2019-03-25T14:48:30.684Z,20.90
2019-03-25T14:51:00.893Z,21.19
2019-03-25T14:53:31.129Z,20.57
2019-03-25T14:56:02.693Z,20.52
2019-03-25T14:58:34.367Z,20.20
2019-03-25T15:01:05.206Z,20.36
2019-03-25T15:03:38.343Z,20.40
2019-03-25T15:06:12.704Z,20.30
2019-03-25T15:08:42.708Z,20.83
2019-03-25T15:11:13.232Z,20.23
2019-03-25T15:13:43.629Z,20.91
2019-03-25T15:16:13.838Z,20.75
2019-03-25T15:18:44.100Z,20.98
2019-03-25T15:21:14.342Z,20.50
2019-03-25T15:23:44.477Z,20.79
2019-03-25T15:26:16.058Z,21.23
2019-03-25T15:28:46.246Z,20.42
2019-03-25T15:31:17.677Z,21.75
2019-03-25T15:33:47.721Z,20.52
2019-03-25T15:36:20.232Z,20.17
2019-03-25T15:38:50.528Z,20.13
2019-03-25T15:41:21.327Z,20.28
2019-03-25T15:43:52.600Z,20.03
2019-03-25T15:46:22.827Z,18.96
2019-03-25T15:48:53.065Z,18.50
2019-03-25T15:51:23.415Z,19.39
2019-03-25T15:53:53.813Z,20.13
2019-03-25T15:56:24.435Z,18.45
2019-03-25T15:58:54.882Z,18.84
2019-03-25T16:01:26.951Z,18.80
2019-03-25T16:03:57.231Z,19.12
2019-03-25T16:06:27.418Z,18.48
2019-03-25T16:08:57.925Z,18.45
2019-03-25T16:11:28.306Z,17.53
2019-03-25T16:13:58.937Z,17.66
2019-03-25T16:16:30.822Z,18.67
2019-03-25T16:19:01.260Z,19.35
2019-03-25T16:21:31.491Z,18.25
2019-03-25T16:24:04.163Z,19.10
2019-03-25T16:26:35.531Z,18.76
2019-03-25T16:29:05.940Z,18.95
2019-03-25T16:31:37.411Z,19.13
2019-03-25T16:34:09.313Z,18.97
2019-03-25T16:36:40.637Z,18.45
2019-03-25T16:39:13.775Z,18.41
2019-03-25T16:41:44.109Z,18.76
2019-03-25T16:44:15.699Z,19.00
2019-03-25T16:46:47.479Z,19.03
2019-03-25T16:49:17.769Z,18.75
2019-03-25T16:51:47.835Z,18.67
2019-03-25T16:54:17.983Z,19.33
2019-03-25T16:56:48.263Z,19.23
2019-03-25T16:59:18.477Z,19.50
2019-03-25T17:01:50.651Z,19.78
2019-03-25T17:04:21.011Z,19.76
2019-03-25T17:06:52.251Z,20.21
2019-03-25T17:09:22.461Z,20.39
2019-03-25T17:11:52.657Z,20.18
2019-03-25T17:14:22.837Z,20.20
2019-03-25T17:16:55.918Z,19.91
2019-03-25T17:19:25.574Z,19.90
2019-03-25T17:21:58.217Z,20.67
2019-03-25T17:24:28.968Z,20.40
2019-03-25T17:27:00.430Z,21.19
2019-03-25T17:29:32.892Z,22.20
2019-03-25T17:32:04.681Z,22.69
2019-03-25T17:34:34.810Z,22.54
2019-03-25T17:37:04.996Z,22.88
2019-03-25T17:39:35.025Z,23.72
2019-03-25T17:42:05.281Z,23.03
2019-03-25T17:44:35.468Z,23.30
2019-03-25T17:47:05.893Z,23.34
2019-03-25T17:49:36.139Z,23.86
2019-03-25T17:52:06.291Z,24.39
2019-03-25T17:54:38.760Z,24.83
2019-03-25T17:57:09.008Z,25.50
2019-03-25T17:59:39.292Z,25.76
2019-03-25T18:02:11.234Z,26.13
2019-03-25T18:04:41.380Z,26.46
2019-03-25T18:07:11.595Z,26.42
2019-03-25T18:09:41.906Z,26.59
2019-03-25T18:12:12.155Z,26.61
2019-03-25T18:14:42.266Z,26.64
2019-03-25T18:17:12.420Z,26.66
2019-03-25T18:19:42.646Z,26.79
2019-03-25T18:22:12.842Z,26.87
2019-03-25T18:24:42.872Z,27.18
2019-03-25T18:27:13.019Z,27.11
2019-03-25T18:29:43.242Z,27.60
2019-03-25T18:32:13.426Z,28.79
2019-03-25T18:34:43.520Z,28.52
2019-03-25T18:37:13.799Z,29.33
2019-03-25T18:39:44.033Z,29.91
2019-03-25T18:42:14.234Z,30.03
2019-03-25T18:44:44.495Z,29.24
2019-03-25T18:47:14.670Z,29.63
2019-03-25T18:49:44.905Z,30.02
2019-03-25T18:52:15.239Z,29.97
2019-03-25T18:54:45.430Z,30.46
2019-03-25T18:57:15.739Z,30.21
2019-03-25T18:59:46.142Z,31.00
2019-03-25T19:02:16.287Z,28.59
2019-03-25T19:04:46.551Z,28.75
2019-03-25T19:07:16.545Z,29.75
2019-03-25T19:09:47.029Z,31.03
2019-03-25T19:12:17.300Z,31.03
2019-03-25T19:14:49.584Z,31.12
2019-03-25T19:17:19.925Z,32.20
2019-03-25T19:19:50.086Z,31.04
2019-03-25T19:22:21.511Z,31.60
2019-03-25T19:24:51.776Z,31.62
2019-03-25T19:27:21.955Z,32.81
2019-03-25T19:29:52.002Z,32.57
2019-03-25T19:32:22.152Z,32.25
2019-03-25T19:34:52.353Z,32.21
2019-03-25T19:37:22.560Z,33.37
2019-03-25T19:39:52.769Z,33.80
2019-03-25T19:42:23.053Z,34.73
2019-03-25T19:44:53.302Z,33.75
2019-03-25T19:47:23.518Z,34.40
2019-03-25T19:49:53.768Z,34.70
2019-03-25T19:52:24.051Z,34.26
2019-03-25T19:54:54.097Z,34.16
2019-03-25T19:57:28.338Z,35.21
2019-03-25T19:59:58.357Z,35.49
2019-03-25T20:02:28.464Z,35.22
2019-03-25T20:04:58.676Z,34.76
2019-03-25T20:07:31.403Z,35.44
2019-03-25T20:10:01.442Z,36.04
2019-03-25T20:12:31.677Z,36.10
2019-03-25T20:15:01.899Z,36.79
2019-03-25T20:17:32.195Z,36.40
2019-03-25T20:20:05.263Z,36.54
2019-03-25T20:22:35.616Z,36.86
2019-03-25T20:25:06.348Z,36.36
2019-03-25T20:27:36.600Z,36.52
2019-03-25T20:30:07.313Z,36.61
2019-03-25T20:32:37.535Z,38.14
2019-03-25T20:35:07.920Z,37.79
2019-03-25T20:37:38.164Z,37.96
2019-03-25T20:40:08.798Z,38.74
2019-03-25T20:42:39.037Z,38.31
2019-03-25T20:45:09.639Z,38.10
2019-03-25T20:47:39.859Z,38.24
2019-03-25T20:50:10.601Z,38.46
2019-03-25T20:52:40.974Z,38.61
2019-03-25T20:55:11.272Z,39.22
2019-03-25T20:57:41.491Z,39.12
2019-03-25T21:00:13.523Z,37.89
2019-03-25T21:02:45.271Z,36.75
2019-03-25T21:05:15.661Z,39.08
2019-03-25T21:07:45.658Z,39.00
2019-03-25T21:10:15.839Z,37.29
2019-03-25T21:12:46.056Z,37.25
2019-03-25T21:15:16.185Z,36.23
2019-03-25T21:17:46.441Z,36.82
2019-03-25T21:20:16.716Z,36.75
2019-03-25T21:22:46.975Z,38.06
2019-03-25T21:25:17.127Z,38.73
2019-03-25T21:27:47.358Z,39.62
2019-03-25T21:30:17.959Z,37.51
2019-03-25T21:32:57.542Z,39.26
2019-03-25T21:35:19.996Z,38.96
2019-03-25T21:37:50.174Z,39.19
2019-03-25T21:40:20.579Z,39.23
2019-03-25T21:42:50.829Z,39.92
2019-03-25T21:45:22.077Z,37.64
2019-03-25T21:47:52.237Z,37.24
2019-03-25T21:50:24.692Z,37.33
2019-03-25T21:52:55.058Z,37.34
2019-03-25T21:55:25.240Z,37.27
2019-03-25T21:57:55.587Z,38.88
2019-03-25T22:00:26.865Z,38.97
2019-03-25T22:02:57.099Z,38.47
2019-03-25T22:05:27.215Z,39.12
2019-03-25T22:07:57.483Z,39.35
2019-03-25T22:10:27.575Z,39.80
2019-03-25T22:12:57.810Z,40.64
2019-03-25T22:15:28.160Z,40.79
2019-03-25T22:17:59.402Z,40.94
2019-03-25T22:20:30.727Z,38.95
2019-03-25T22:23:00.900Z,39.09
2019-03-25T22:25:30.955Z,38.80
2019-03-25T22:28:01.052Z,38.25
2019-03-25T22:30:31.132Z,38.86
2019-03-25T22:33:01.370Z,38.51
2019-03-25T22:35:31.594Z,38.58
2019-03-25T22:38:02.863Z,38.29
2019-03-25T22:40:33.087Z,38.17
2019-03-25T22:43:03.357Z,37.97
2019-03-25T22:45:34.095Z,37.98
2019-03-25T22:48:07.272Z,37.94
2019-03-25T22:50:37.790Z,38.13
2019-03-25T22:53:07.874Z,38.14
2019-03-25T22:55:38.998Z,38.09
2019-03-25T22:58:09.387Z,37.96
2019-03-25T23:00:45.956Z,38.54
2019-03-25T23:03:16.817Z,38.41
2019-03-25T23:05:48.621Z,38.49
2019-03-25T23:08:18.873Z,38.83
2019-03-25T23:10:49.058Z,38.68
2019-03-25T23:13:19.269Z,38.66
2019-03-25T23:15:49.452Z,38.68
2019-03-25T23:18:19.659Z,38.93
2019-03-25T23:20:49.880Z,38.99
2019-03-25T23:23:20.150Z,39.30
2019-03-25T23:25:50.394Z,39.03
2019-03-25T23:28:20.599Z,38.98
2019-03-25T23:30:50.736Z,39.19
2019-03-25T23:33:20.804Z,39.65
2019-03-25T23:35:50.947Z,39.36
2019-03-25T23:38:21.136Z,39.07
2019-03-25T23:40:51.418Z,39.47
2019-03-25T23:43:23.229Z,39.42
2019-03-25T23:45:53.414Z,39.27
2019-03-25T23:48:23.648Z,39.56
2019-03-25T23:50:53.703Z,39.73
2019-03-25T23:53:23.791Z,39.79
2019-03-25T23:55:54.129Z,39.96
2019-03-25T23:58:25.959Z,40.47
